AZO6509 URSS-URMM
Flight info
| Callsign | AZO6509 |
|---|---|
| Flight time | 0h 43m |
| Altitude | 39000 |
| Route | IRGID1T IRGID A944 GUBOR G487 ERSAR B967 ABELA ABELA5B |
| Aircraft | SU95/M-SDE3GILORVW/S |
Departure
| Time | 2026-05-06 18:16 |
|---|---|
| Airport | Sochi International Airport (URSS) |
Arrival
| Time | 2026-05-06 19:00 |
|---|---|
| Airport | Mineralnye Vody Airport (URMM) |
| Time | Latitude | Longitude | Altitude | Speed | Heading |
|---|---|---|---|---|---|
| 2026-05-06 17:54 | 43.44726 | 39.94108 | 45 ft | 0 kts | 335° |
| 2026-05-06 18:07 | 43.44717 | 39.94114 | 68 ft | 2 kts | 334° |
| 2026-05-06 18:07 | 43.44702 | 39.94124 | 69 ft | 2 kts | 334° |
| 2026-05-06 18:08 | 43.44687 | 39.94133 | 69 ft | 2 kts | 335° |
| 2026-05-06 18:08 | 43.44673 | 39.94142 | 67 ft | 2 kts | 335° |
| 2026-05-06 18:08 | 43.44658 | 39.94152 | 69 ft | 2 kts | 335° |
| 2026-05-06 18:08 | 43.44643 | 39.94162 | 66 ft | 2 kts | 335° |
| 2026-05-06 18:09 | 43.44628 | 39.94171 | 69 ft | 2 kts | 336° |
| 2026-05-06 18:09 | 43.44614 | 39.94171 | 63 ft | 2 kts | 46° |
| 2026-05-06 18:09 | 43.44608 | 39.94157 | 66 ft | 1 kts | 64° |
| 2026-05-06 18:11 | 43.44608 | 39.94158 | 65 ft | 0 kts | 64° |
| 2026-05-06 18:12 | 43.44614 | 39.94174 | 63 ft | 11 kts | 64° |
| 2026-05-06 18:12 | 43.44655 | 39.94294 | 72 ft | 27 kts | 64° |
| 2026-05-06 18:12 | 43.44688 | 39.94392 | 66 ft | 28 kts | 64° |
| 2026-05-06 18:13 | 43.44770 | 39.94632 | 70 ft | 28 kts | 65° |
| 2026-05-06 18:13 | 43.44856 | 39.94882 | 73 ft | 28 kts | 65° |
| 2026-05-06 18:13 | 43.44900 | 39.95012 | 77 ft | 9 kts | 66° |
| 2026-05-06 18:13 | 43.44908 | 39.95036 | 73 ft | 12 kts | 65° |
| 2026-05-06 18:14 | 43.44949 | 39.95143 | 81 ft | 20 kts | 65° |
| 2026-05-06 18:14 | 43.44988 | 39.95261 | 86 ft | 8 kts | 65° |
| 2026-05-06 18:14 | 43.44989 | 39.95325 | 85 ft | 0 kts | 124° |
| 2026-05-06 18:15 | 43.44943 | 39.95357 | 86 ft | 13 kts | 162° |
| 2026-05-06 18:16 | 43.44876 | 39.95296 | 82 ft | 15 kts | 243° |
| 2026-05-06 18:16 | 43.44737 | 39.94895 | 69 ft | 93 kts | 244° |
| 2026-05-06 18:16 | 43.44337 | 39.93739 | 219 ft | 156 kts | 245° |
| 2026-05-06 18:16 | 43.43828 | 39.92283 | 935 ft | 178 kts | 244° |
| 2026-05-06 18:17 | 43.43321 | 39.90812 | 1970 ft | 185 kts | 245° |
| 2026-05-06 18:17 | 43.42844 | 39.89073 | 2839 ft | 206 kts | 261° |
| 2026-05-06 18:17 | 43.42928 | 39.86984 | 3614 ft | 226 kts | 286° |
| 2026-05-06 18:17 | 43.43577 | 39.84910 | 4419 ft | 247 kts | 300° |
| 2026-05-06 18:18 | 43.44557 | 39.82855 | 4910 ft | 263 kts | 306° |
| 2026-05-06 18:18 | 43.45524 | 39.81105 | 4993 ft | 266 kts | 309° |
| 2026-05-06 18:18 | 43.46670 | 39.79115 | 4994 ft | 265 kts | 309° |
| 2026-05-06 18:18 | 43.47672 | 39.77371 | 4990 ft | 263 kts | 308° |
| 2026-05-06 18:19 | 43.48748 | 39.75479 | 4991 ft | 267 kts | 308° |
| 2026-05-06 18:19 | 43.49878 | 39.73460 | 4985 ft | 264 kts | 308° |
| 2026-05-06 18:19 | 43.50984 | 39.71454 | 5042 ft | 268 kts | 308° |
| 2026-05-06 18:19 | 43.52113 | 39.69401 | 5680 ft | 269 kts | 308° |
| 2026-05-06 18:20 | 43.53244 | 39.67346 | 7015 ft | 267 kts | 308° |
| 2026-05-06 18:20 | 43.54378 | 39.65287 | 8325 ft | 273 kts | 308° |
| 2026-05-06 18:20 | 43.55533 | 39.63195 | 9481 ft | 278 kts | 307° |
| 2026-05-06 18:20 | 43.56726 | 39.61038 | 10463 ft | 288 kts | 307° |
| 2026-05-06 18:21 | 43.57933 | 39.58852 | 10928 ft | 312 kts | 307° |
| 2026-05-06 18:21 | 43.59288 | 39.56400 | 11612 ft | 327 kts | 307° |
| 2026-05-06 18:21 | 43.60648 | 39.53942 | 12563 ft | 333 kts | 308° |
| 2026-05-06 18:21 | 43.62356 | 39.51799 | 13486 ft | 339 kts | 329° |
| 2026-05-06 18:22 | 43.64562 | 39.50651 | 14372 ft | 344 kts | 352° |
| 2026-05-06 18:22 | 43.66836 | 39.50693 | 15278 ft | 345 kts | 12° |
| 2026-05-06 18:22 | 43.69161 | 39.51701 | 16218 ft | 347 kts | 24° |
| 2026-05-06 18:22 | 43.71130 | 39.53500 | 17100 ft | 351 kts | 44° |
| 2026-05-06 18:23 | 43.72596 | 39.56258 | 17989 ft | 356 kts | 64° |
| 2026-05-06 18:23 | 43.73317 | 39.59510 | 18791 ft | 361 kts | 78° |
| 2026-05-06 18:23 | 43.73819 | 39.62930 | 19565 ft | 365 kts | 78° |
| 2026-05-06 18:23 | 43.74325 | 39.66389 | 20342 ft | 369 kts | 78° |
| 2026-05-06 18:24 | 43.74851 | 39.69945 | 21111 ft | 374 kts | 78° |
| 2026-05-06 18:24 | 43.75372 | 39.73440 | 21841 ft | 378 kts | 78° |
| 2026-05-06 18:24 | 43.75890 | 39.76903 | 22568 ft | 383 kts | 78° |
| 2026-05-06 18:24 | 43.76434 | 39.80535 | 23309 ft | 388 kts | 78° |
| 2026-05-06 18:25 | 43.76612 | 39.81723 | 23546 ft | 389 kts | 78° |
| 2026-05-06 18:25 | 43.76958 | 39.84038 | 23958 ft | 392 kts | 78° |
| 2026-05-06 18:25 | 43.77512 | 39.87752 | 24666 ft | 393 kts | 78° |
| 2026-05-06 18:25 | 43.78052 | 39.91380 | 25337 ft | 395 kts | 78° |
| 2026-05-06 18:26 | 43.78579 | 39.95123 | 26003 ft | 397 kts | 79° |
| 2026-05-06 18:26 | 43.79064 | 39.98900 | 26635 ft | 400 kts | 79° |
| 2026-05-06 18:26 | 43.79534 | 40.02644 | 27251 ft | 403 kts | 79° |
| 2026-05-06 18:26 | 43.80016 | 40.06463 | 27884 ft | 405 kts | 79° |
| 2026-05-06 18:27 | 43.80505 | 40.10316 | 28480 ft | 407 kts | 79° |
| 2026-05-06 18:27 | 43.81001 | 40.14197 | 28991 ft | 410 kts | 79° |
| 2026-05-06 18:27 | 43.81466 | 40.17843 | 29136 ft | 411 kts | 79° |
| 2026-05-06 18:27 | 43.81965 | 40.21748 | 29133 ft | 411 kts | 79° |
| 2026-05-06 18:28 | 43.82956 | 40.29547 | 29136 ft | 411 kts | 79° |
| 2026-05-06 18:28 | 43.83942 | 40.37340 | 29146 ft | 411 kts | 79° |
| 2026-05-06 18:29 | 43.84926 | 40.45164 | 29139 ft | 411 kts | 79° |
| 2026-05-06 18:29 | 43.85840 | 40.52481 | 29141 ft | 412 kts | 79° |
| 2026-05-06 18:30 | 43.86791 | 40.60136 | 29139 ft | 411 kts | 79° |
| 2026-05-06 18:30 | 43.87739 | 40.67778 | 29143 ft | 412 kts | 78° |
| 2026-05-06 18:31 | 43.89462 | 40.75313 | 29142 ft | 411 kts | 65° |
| 2026-05-06 18:31 | 43.91669 | 40.82341 | 29139 ft | 411 kts | 66° |
| 2026-05-06 18:32 | 43.93928 | 40.89619 | 29141 ft | 411 kts | 66° |
| 2026-05-06 18:32 | 43.96189 | 40.96922 | 29142 ft | 411 kts | 66° |
| 2026-05-06 18:33 | 43.98444 | 41.04223 | 29142 ft | 412 kts | 66° |
| 2026-05-06 18:33 | 44.00682 | 41.11488 | 29139 ft | 412 kts | 66° |
| 2026-05-06 18:34 | 44.02936 | 41.18825 | 29134 ft | 412 kts | 66° |
| 2026-05-06 18:34 | 44.05184 | 41.26165 | 29131 ft | 413 kts | 66° |
| 2026-05-06 18:35 | 44.07403 | 41.33430 | 28787 ft | 409 kts | 66° |
| 2026-05-06 18:35 | 44.08482 | 41.36971 | 28182 ft | 407 kts | 66° |
| 2026-05-06 18:35 | 44.09596 | 41.40631 | 27563 ft | 406 kts | 66° |
| 2026-05-06 18:36 | 44.10686 | 41.44252 | 26956 ft | 404 kts | 68° |
| 2026-05-06 18:36 | 44.11542 | 41.47967 | 26333 ft | 402 kts | 75° |
| 2026-05-06 18:36 | 44.12058 | 41.51655 | 25734 ft | 401 kts | 82° |
| 2026-05-06 18:36 | 44.12328 | 41.55460 | 25157 ft | 399 kts | 84° |
| 2026-05-06 18:37 | 44.12590 | 41.59297 | 24580 ft | 396 kts | 84° |
| 2026-05-06 18:37 | 44.12770 | 41.61869 | 24189 ft | 395 kts | 84° |
| 2026-05-06 18:37 | 44.13121 | 41.66895 | 23335 ft | 393 kts | 84° |
| 2026-05-06 18:37 | 44.13383 | 41.70674 | 22748 ft | 389 kts | 84° |
| 2026-05-06 18:38 | 44.13639 | 41.74408 | 22151 ft | 386 kts | 84° |
| 2026-05-06 18:38 | 44.13891 | 41.78110 | 21559 ft | 382 kts | 84° |
| 2026-05-06 18:38 | 44.14139 | 41.81770 | 20972 ft | 380 kts | 84° |
| 2026-05-06 18:38 | 44.14384 | 41.85418 | 20399 ft | 376 kts | 84° |
| 2026-05-06 18:39 | 44.14625 | 41.89028 | 19850 ft | 373 kts | 84° |
| 2026-05-06 18:39 | 44.14865 | 41.92623 | 19290 ft | 371 kts | 84° |
| 2026-05-06 18:39 | 44.15101 | 41.96186 | 18761 ft | 368 kts | 84° |
| 2026-05-06 18:40 | 44.15551 | 42.03030 | 17657 ft | 362 kts | 84° |
| 2026-05-06 18:40 | 44.15782 | 42.06565 | 17073 ft | 360 kts | 84° |
| 2026-05-06 18:40 | 44.16004 | 42.09976 | 16512 ft | 357 kts | 84° |
| 2026-05-06 18:40 | 44.16226 | 42.13399 | 15961 ft | 354 kts | 84° |
| 2026-05-06 18:41 | 44.16445 | 42.16810 | 15410 ft | 352 kts | 84° |
| 2026-05-06 18:41 | 44.16653 | 42.20047 | 14895 ft | 350 kts | 84° |
| 2026-05-06 18:41 | 44.16867 | 42.23406 | 14379 ft | 348 kts | 84° |
| 2026-05-06 18:41 | 44.17080 | 42.26752 | 13882 ft | 345 kts | 84° |
| 2026-05-06 18:42 | 44.17290 | 42.30075 | 13321 ft | 342 kts | 84° |
| 2026-05-06 18:42 | 44.17430 | 42.32302 | 12943 ft | 341 kts | 84° |
| 2026-05-06 18:42 | 44.17634 | 42.35544 | 12429 ft | 338 kts | 84° |
| 2026-05-06 18:42 | 44.17837 | 42.38791 | 11898 ft | 336 kts | 84° |
| 2026-05-06 18:43 | 44.18033 | 42.41958 | 11621 ft | 327 kts | 85° |
| 2026-05-06 18:43 | 44.18224 | 42.45048 | 11494 ft | 313 kts | 84° |
| 2026-05-06 18:43 | 44.18409 | 42.48048 | 11338 ft | 301 kts | 84° |
| 2026-05-06 18:43 | 44.18585 | 42.50916 | 11138 ft | 293 kts | 84° |
| 2026-05-06 18:44 | 44.18759 | 42.53765 | 11103 ft | 299 kts | 84° |
| 2026-05-06 18:44 | 44.18935 | 42.56666 | 11104 ft | 301 kts | 84° |
| 2026-05-06 18:44 | 44.19272 | 42.59480 | 11102 ft | 298 kts | 72° |
| 2026-05-06 18:44 | 44.20115 | 42.62102 | 11093 ft | 296 kts | 57° |
| 2026-05-06 18:45 | 44.21244 | 42.64452 | 11047 ft | 297 kts | 54° |
| 2026-05-06 18:45 | 44.22393 | 42.66839 | 10802 ft | 295 kts | 55° |
| 2026-05-06 18:45 | 44.23529 | 42.69205 | 10557 ft | 292 kts | 54° |
| 2026-05-06 18:45 | 44.24651 | 42.71549 | 10314 ft | 291 kts | 55° |
| 2026-05-06 18:46 | 44.25759 | 42.73891 | 10074 ft | 289 kts | 55° |
| 2026-05-06 18:46 | 44.26869 | 42.76238 | 9914 ft | 287 kts | 55° |
| 2026-05-06 18:46 | 44.27972 | 42.78568 | 9783 ft | 287 kts | 55° |
| 2026-05-06 18:46 | 44.29064 | 42.80872 | 9649 ft | 286 kts | 55° |
| 2026-05-06 18:47 | 44.30158 | 42.83183 | 9513 ft | 284 kts | 55° |
| 2026-05-06 18:47 | 44.31178 | 42.85336 | 9395 ft | 284 kts | 55° |
| 2026-05-06 18:47 | 44.32264 | 42.87630 | 9261 ft | 283 kts | 55° |
| 2026-05-06 18:47 | 44.33346 | 42.89917 | 9132 ft | 281 kts | 55° |
| 2026-05-06 18:48 | 44.34422 | 42.92194 | 9002 ft | 281 kts | 55° |
| 2026-05-06 18:48 | 44.35481 | 42.94438 | 8882 ft | 280 kts | 55° |
| 2026-05-06 18:48 | 44.36549 | 42.96702 | 8742 ft | 279 kts | 55° |
| 2026-05-06 18:48 | 44.37617 | 42.98968 | 8615 ft | 279 kts | 55° |
| 2026-05-06 18:49 | 44.38685 | 43.01235 | 8486 ft | 278 kts | 55° |
| 2026-05-06 18:49 | 44.39705 | 43.03411 | 8351 ft | 279 kts | 57° |
| 2026-05-06 18:49 | 44.40345 | 43.05954 | 8211 ft | 280 kts | 83° |
| 2026-05-06 18:49 | 44.40106 | 43.08644 | 8074 ft | 282 kts | 109° |
| 2026-05-06 18:50 | 44.39076 | 43.10972 | 7744 ft | 283 kts | 129° |
| 2026-05-06 18:50 | 44.37750 | 43.13013 | 7340 ft | 283 kts | 133° |
| 2026-05-06 18:50 | 44.36385 | 43.14992 | 6962 ft | 282 kts | 133° |
| 2026-05-06 18:50 | 44.35050 | 43.16956 | 6602 ft | 280 kts | 132° |
| 2026-05-06 18:51 | 44.33727 | 43.18959 | 6211 ft | 279 kts | 131° |
| 2026-05-06 18:51 | 44.32424 | 43.20971 | 5782 ft | 279 kts | 132° |
| 2026-05-06 18:51 | 44.31133 | 43.22984 | 5394 ft | 278 kts | 132° |
| 2026-05-06 18:51 | 44.29851 | 43.24989 | 4987 ft | 278 kts | 132° |
| 2026-05-06 18:52 | 44.28571 | 43.26990 | 4631 ft | 276 kts | 132° |
| 2026-05-06 18:52 | 44.27288 | 43.28994 | 4232 ft | 275 kts | 133° |
| 2026-05-06 18:52 | 44.26020 | 43.30973 | 4012 ft | 273 kts | 133° |
| 2026-05-06 18:52 | 44.24743 | 43.32964 | 3977 ft | 275 kts | 132° |
| 2026-05-06 18:53 | 44.23467 | 43.34953 | 3974 ft | 274 kts | 133° |
| 2026-05-06 18:53 | 44.22187 | 43.36928 | 3971 ft | 274 kts | 136° |
| 2026-05-06 18:53 | 44.20597 | 43.38320 | 3971 ft | 271 kts | 164° |
| 2026-05-06 18:53 | 44.18754 | 43.38532 | 3969 ft | 266 kts | 192° |
| 2026-05-06 18:54 | 44.17061 | 43.37568 | 3977 ft | 263 kts | 214° |
| 2026-05-06 18:54 | 44.15542 | 43.36178 | 3968 ft | 256 kts | 217° |
| 2026-05-06 18:54 | 44.14126 | 43.34817 | 3970 ft | 237 kts | 217° |
| 2026-05-06 18:54 | 44.13028 | 43.33397 | 3975 ft | 212 kts | 242° |
| 2026-05-06 18:55 | 44.12743 | 43.31547 | 3978 ft | 188 kts | 277° |
| 2026-05-06 18:55 | 44.13093 | 43.29793 | 3978 ft | 187 kts | 293° |
| 2026-05-06 18:55 | 44.13680 | 43.28209 | 3981 ft | 186 kts | 300° |
| 2026-05-06 18:55 | 44.14280 | 43.26841 | 3887 ft | 188 kts | 301° |
| 2026-05-06 18:56 | 44.14974 | 43.25314 | 3622 ft | 185 kts | 301° |
| 2026-05-06 18:56 | 44.15655 | 43.23809 | 3370 ft | 182 kts | 301° |
| 2026-05-06 18:56 | 44.16311 | 43.22362 | 3144 ft | 172 kts | 301° |
| 2026-05-06 18:56 | 44.16927 | 43.21002 | 2919 ft | 157 kts | 301° |
| 2026-05-06 18:57 | 44.17480 | 43.19783 | 2706 ft | 141 kts | 301° |
| 2026-05-06 18:57 | 44.17987 | 43.18659 | 2527 ft | 139 kts | 300° |
| 2026-05-06 18:57 | 44.18505 | 43.17514 | 2326 ft | 137 kts | 300° |
| 2026-05-06 18:57 | 44.19019 | 43.16381 | 2127 ft | 138 kts | 300° |
| 2026-05-06 18:58 | 44.19535 | 43.15241 | 1928 ft | 141 kts | 301° |
| 2026-05-06 18:58 | 44.20056 | 43.14090 | 1722 ft | 139 kts | 299° |
| 2026-05-06 18:58 | 44.20574 | 43.12929 | 1500 ft | 142 kts | 300° |
| 2026-05-06 18:58 | 44.21087 | 43.11762 | 1329 ft | 141 kts | 299° |
| 2026-05-06 18:59 | 44.21615 | 43.10648 | 1165 ft | 140 kts | 301° |
| 2026-05-06 18:59 | 44.22131 | 43.09512 | 1077 ft | 131 kts | 298° |
| 2026-05-06 18:59 | 44.22579 | 43.08587 | 1049 ft | 111 kts | 294° |
| 2026-05-06 18:59 | 44.22859 | 43.07908 | 1045 ft | 50 kts | 302° |
| 2026-05-06 19:00 | 44.22945 | 43.07721 | 1046 ft | 9 kts | 306° |
| 2026-05-06 19:00 | 44.22980 | 43.07641 | 1046 ft | 10 kts | 301° |
| 2026-05-06 19:00 | 44.23026 | 43.07541 | 1047 ft | 15 kts | 303° |
| 2026-05-06 19:00 | 44.23072 | 43.07438 | 1046 ft | 23 kts | 302° |
| 2026-05-06 19:01 | 44.23223 | 43.07106 | 1044 ft | 34 kts | 302° |
| 2026-05-06 19:01 | 44.23340 | 43.06849 | 1044 ft | 28 kts | 306° |
| 2026-05-06 19:01 | 44.23431 | 43.06649 | 1046 ft | 21 kts | 301° |
| 2026-05-06 19:01 | 44.23507 | 43.06508 | 1046 ft | 8 kts | 323° |
| 2026-05-06 19:02 | 44.23523 | 43.06475 | 1046 ft | 1 kts | 204° |
| 2026-05-06 19:02 | 44.23483 | 43.06523 | 1046 ft | 12 kts | 107° |
| 2026-05-06 19:02 | 44.23436 | 43.06629 | 1046 ft | 14 kts | 124° |
| 2026-05-06 19:02 | 44.23376 | 43.06756 | 1044 ft | 17 kts | 122° |
| 2026-05-06 19:03 | 44.23315 | 43.06907 | 1044 ft | 18 kts | 124° |
| 2026-05-06 19:03 | 44.23242 | 43.07065 | 1043 ft | 20 kts | 123° |
| 2026-05-06 19:03 | 44.23161 | 43.07243 | 1045 ft | 23 kts | 123° |
| 2026-05-06 19:03 | 44.23069 | 43.07444 | 1046 ft | 26 kts | 122° |
| 2026-05-06 19:04 | 44.22967 | 43.07668 | 1046 ft | 29 kts | 122° |
| 2026-05-06 19:04 | 44.22859 | 43.07905 | 1045 ft | 25 kts | 120° |
| 2026-05-06 19:04 | 44.22765 | 43.08117 | 1045 ft | 26 kts | 123° |
| 2026-05-06 19:04 | 44.22667 | 43.08331 | 1045 ft | 26 kts | 123° |
| 2026-05-06 19:05 | 44.22570 | 43.08547 | 1046 ft | 26 kts | 123° |
| 2026-05-06 19:05 | 44.22455 | 43.08747 | 1047 ft | 27 kts | 137° |
| 2026-05-06 19:05 | 44.22392 | 43.08815 | 1046 ft | 0 kts | 148° |
| 2026-05-06 19:06 | 44.22320 | 43.08875 | 1046 ft | 22 kts | 153° |
| 2026-05-06 19:06 | 44.22175 | 43.08979 | 1044 ft | 24 kts | 152° |
| 2026-05-06 19:06 | 44.22025 | 43.09088 | 1046 ft | 24 kts | 153° |
| 2026-05-06 19:07 | 44.21888 | 43.09085 | 1047 ft | 20 kts | 213° |
| 2026-05-06 19:07 | 44.21807 | 43.09039 | 1047 ft | 10 kts | 209° |
| 2026-05-06 19:07 | 44.21770 | 43.09006 | 1047 ft | 0 kts | 213° |